Hyundai Republic — A8IL3 — position and weather

sailwx.info

Track history (hours):
 
Tides and Currents Weather Stations Pressure Air Temp Water Temp Dewpoint Dewpoint Depression Visibility Wind Speed Wind Dir Waves Ship Positions

Hyundai Republic

Last reported at 2015-May-04 21:26 UTC. Time now 2015-May-07 03:35 UTC.
Position N 01°16' E 104°15'.

Length 305 m; draft 11.6 m.

Type: Ship (hazmat cat A). MMSI: 636090994.

Date/timePositionNaut miles runAvg speedWind from/ knotsBaromVisibWave heightAir tempDewpointWater temp
2015-May-04 21:26N 01°16' E 104°15'1314.7
2015-May-04 20:33N 01°14' E 104°02'1313.1
2015-May-04 19:32N 01°11' E 103°49'6 5.5
2015-May-04 18:31N 01°16' E 103°46'0 0.0
2015-May-04 17:25N 01°16' E 103°46'0 0.0
2015-May-04 16:28N 01°16' E 103°46'0 0.0
2015-May-04 15:31N 01°16' E 103°46'0 0.0
2015-May-04 14:10N 01°16' E 103°46'0 0.0
2015-May-04 13:31N 01°16' E 103°46'0 0.0
2015-May-04 12:33N 01°16' E 103°46'0 0.0
2015-May-04 11:30N 01°16' E 103°46'0 0.0
2015-May-04 10:33N 01°16' E 103°46'0 0.0
2015-May-04 09:30N 01°16' E 103°46'0 0.0
2015-May-04 08:27N 01°16' E 103°46'0 0.0
2015-May-04 07:27N 01°16' E 103°46'0 0.0
2015-May-04 06:30N 01°16' E 103°46'0 0.0
2015-May-04 05:33N 01°16' E 103°46'0 0.0
2015-May-04 04:33N 01°16' E 103°46'0 0.0
2015-May-04 03:33N 01°16' E 103°46'0 0.0
2015-May-04 02:33N 01°16' E 103°46'0 0.0
2015-May-04 01:33N 01°16' E 103°46'0 0.0
2015-May-04 00:27N 01°16' E 103°46'0 0.0
2015-May-03 23:33N 01°16' E 103°46'0 0.0
2015-May-03 22:33N 01°16' E 103°46'0 0.0
2015-May-03 21:33N 01°16' E 103°46'0 0.0
2015-May-03 20:33N 01°16' E 103°46'0 0.0
2015-May-03 19:33N 01°16' E 103°46'0 0.0
2015-May-03 18:27N 01°16' E 103°46'0 0.0
2015-May-03 17:33N 01°16' E 103°46'0 0.0
2015-May-03 16:33N 01°16' E 103°46'0 0.0
2015-May-03 15:33N 01°16' E 103°46'0 0.0
2015-May-03 14:27N 01°16' E 103°46'0 0.0
2015-May-03 13:33N 01°16' E 103°46'0 0.0
2015-May-03 12:30N 01°16' E 103°46'0 0.0
2015-May-03 11:33N 01°16' E 103°46'0 0.0
2015-May-03 10:30N 01°16' E 103°46'0 0.0
2015-May-03 09:33N 01°16' E 103°46'0 0.0
2015-May-03 08:21N 01°16' E 103°46'0 0.1
2015-May-03 07:33N 01°16' E 103°46'7 7.3
2015-May-03 06:33N 01°14' E 103°53'2 1.8
2015-May-03 05:14N 01°16' E 103°54'0 0.0
2015-May-03 04:26N 01°16' E 103°54'0 0.0
2015-May-03 03:29N 01°16' E 103°54'0 0.0
2015-May-02 23:32N 01°16' E 103°55'0 0.1
2015-May-02 22:23N 01°16' E 103°55'0 0.0
2015-May-02 20:28N 01°16' E 103°55'0 0.0
2015-May-02 19:31N 01°16' E 103°55'0 0.0
2015-May-02 17:04N 01°16' E 103°55'0 0.2
2015-May-02 15:19N 01°16' E 103°55'3 3.4
2015-May-02 14:31N 01°14' E 103°53'6 5.9
2015-May-02 13:33N 01°10' E 103°49'6220.0
2015-May-02 10:26N 01°35' E 102°52'2223.2
2015-May-02 09:30N 01°44' E 102°32'26 8.8
2015-May-02 06:32N 01°57' E 102°10'65 8.7
2015-May-01 23:08N 02°37' E 101°19'914.2
2015-May-01 22:31N 02°41' E 101°11'1414.2
2015-May-01 21:31N 02°49' E 100°59'1414.5
2015-May-01 20:33N 02°59' E 100°49'  
Track history (hours):
 
Tides and Currents Weather Stations Pressure Air Temp Water Temp Dewpoint Dewpoint Depression Visibility Wind Speed Wind Dir Waves Ship Positions

Hyundai Republic

Last reported at 2015-May-04 21:26 UTC. Time now 2015-May-07 03:35 UTC.
Position N 01°16' E 104°15'.

Length 305 m; draft 11.6 m.

Type: Ship (hazmat cat A). MMSI: 636090994.

Date/timePositionNaut miles runAvg speedWind from/ knotsBaromVisibWave heightAir tempDewpointWater temp
2015-May-04 21:26N 01°16' E 104°15'1314.7
2015-May-04 20:33N 01°14' E 104°02'1313.1
2015-May-04 19:32N 01°11' E 103°49'6 5.5
2015-May-04 18:31N 01°16' E 103°46'0 0.0
2015-May-04 17:25N 01°16' E 103°46'0 0.0
2015-May-04 16:28N 01°16' E 103°46'0 0.0
2015-May-04 15:31N 01°16' E 103°46'0 0.0
2015-May-04 14:10N 01°16' E 103°46'0 0.0
2015-May-04 13:31N 01°16' E 103°46'0 0.0
2015-May-04 12:33N 01°16' E 103°46'0 0.0
2015-May-04 11:30N 01°16' E 103°46'0 0.0
2015-May-04 10:33N 01°16' E 103°46'0 0.0
2015-May-04 09:30N 01°16' E 103°46'0 0.0
2015-May-04 08:27N 01°16' E 103°46'0 0.0
2015-May-04 07:27N 01°16' E 103°46'0 0.0
2015-May-04 06:30N 01°16' E 103°46'0 0.0
2015-May-04 05:33N 01°16' E 103°46'0 0.0
2015-May-04 04:33N 01°16' E 103°46'0 0.0
2015-May-04 03:33N 01°16' E 103°46'0 0.0
2015-May-04 02:33N 01°16' E 103°46'0 0.0
2015-May-04 01:33N 01°16' E 103°46'0 0.0
2015-May-04 00:27N 01°16' E 103°46'0 0.0
2015-May-03 23:33N 01°16' E 103°46'0 0.0
2015-May-03 22:33N 01°16' E 103°46'0 0.0
2015-May-03 21:33N 01°16' E 103°46'0 0.0
2015-May-03 20:33N 01°16' E 103°46'0 0.0
2015-May-03 19:33N 01°16' E 103°46'0 0.0
2015-May-03 18:27N 01°16' E 103°46'0 0.0
2015-May-03 17:33N 01°16' E 103°46'0 0.0
2015-May-03 16:33N 01°16' E 103°46'0 0.0
2015-May-03 15:33N 01°16' E 103°46'0 0.0
2015-May-03 14:27N 01°16' E 103°46'0 0.0
2015-May-03 13:33N 01°16' E 103°46'0 0.0
2015-May-03 12:30N 01°16' E 103°46'0 0.0
2015-May-03 11:33N 01°16' E 103°46'0 0.0
2015-May-03 10:30N 01°16' E 103°46'0 0.0
2015-May-03 09:33N 01°16' E 103°46'0 0.0
2015-May-03 08:21N 01°16' E 103°46'0 0.1
2015-May-03 07:33N 01°16' E 103°46'7 7.3
2015-May-03 06:33N 01°14' E 103°53'2 1.8
2015-May-03 05:14N 01°16' E 103°54'0 0.0
2015-May-03 04:26N 01°16' E 103°54'0 0.0
2015-May-03 03:29N 01°16' E 103°54'0 0.0
2015-May-02 23:32N 01°16' E 103°55'0 0.1
2015-May-02 22:23N 01°16' E 103°55'0 0.0
2015-May-02 20:28N 01°16' E 103°55'0 0.0
2015-May-02 19:31N 01°16' E 103°55'0 0.0
2015-May-02 17:04N 01°16' E 103°55'0 0.2
2015-May-02 15:19N 01°16' E 103°55'3 3.4
2015-May-02 14:31N 01°14' E 103°53'6 5.9
2015-May-02 13:33N 01°10' E 103°49'6220.0
2015-May-02 10:26N 01°35' E 102°52'2223.2
2015-May-02 09:30N 01°44' E 102°32'26 8.8
2015-May-02 06:32N 01°57' E 102°10'65 8.7
2015-May-01 23:08N 02°37' E 101°19'914.2
2015-May-01 22:31N 02°41' E 101°11'1414.2
2015-May-01 21:31N 02°49' E 100°59'1414.5
2015-May-01 20:33N 02°59' E 100°49'  

Dump ship's entire track history